sensor_id;sensor_type;location;lat;lon;timestamp;P1;durP1;ratioP1;P2;durP2;ratioP2
69736;SDS011;64476;55.004;73.342;2023-04-15T00:01:24;21.20;;;4.03;;
69736;SDS011;64476;55.004;73.342;2023-04-15T00:04:27;5.05;;;3.30;;
69736;SDS011;64476;55.004;73.342;2023-04-15T00:07:28;6.78;;;3.65;;
69736;SDS011;64476;55.004;73.342;2023-04-15T00:10:30;4.22;;;3.50;;
69736;SDS011;64476;55.004;73.342;2023-04-15T00:13:31;8.80;;;3.05;;
69736;SDS011;64476;55.004;73.342;2023-04-15T00:16:41;6.22;;;3.50;;
69736;SDS011;64476;55.004;73.342;2023-04-15T00:19:46;6.82;;;3.90;;
69736;SDS011;64476;55.004;73.342;2023-04-15T00:22:48;5.70;;;3.13;;
69736;SDS011;64476;55.004;73.342;2023-04-15T00:25:50;9.70;;;3.92;;
69736;SDS011;64476;55.004;73.342;2023-04-15T00:28:55;3.67;;;3.10;;
69736;SDS011;64476;55.004;73.342;2023-04-15T00:31:57;16.88;;;4.05;;
69736;SDS011;64476;55.004;73.342;2023-04-15T00:34:58;10.13;;;4.68;;
69736;SDS011;64476;55.004;73.342;2023-04-15T00:38:11;25.15;;;6.15;;
69736;SDS011;64476;55.004;73.342;2023-04-15T00:41:13;4.43;;;3.20;;
69736;SDS011;64476;55.004;73.342;2023-04-15T00:44:15;10.07;;;3.60;;
69736;SDS011;64476;55.004;73.342;2023-04-15T00:47:19;6.63;;;4.23;;
69736;SDS011;64476;55.004;73.342;2023-04-15T00:50:21;5.47;;;3.58;;
69736;SDS011;64476;55.004;73.342;2023-04-15T00:53:23;9.13;;;4.70;;
69736;SDS011;64476;55.004;73.342;2023-04-15T00:56:36;17.37;;;5.73;;
69736;SDS011;64476;55.004;73.342;2023-04-15T00:59:38;24.67;;;7.82;;
69736;SDS011;64476;55.004;73.342;2023-04-15T01:02:45;22.83;;;5.63;;
69736;SDS011;64476;55.004;73.342;2023-04-15T01:05:55;26.77;;;3.15;;
69736;SDS011;64476;55.004;73.342;2023-04-15T01:09:00;9.45;;;3.10;;
69736;SDS011;64476;55.004;73.342;2023-04-15T01:12:02;9.63;;;3.75;;
69736;SDS011;64476;55.004;73.342;2023-04-15T01:15:05;5.07;;;3.08;;
69736;SDS011;64476;55.004;73.342;2023-04-15T01:18:08;8.82;;;3.20;;
69736;SDS011;64476;55.004;73.342;2023-04-15T01:21:12;29.80;;;4.43;;
69736;SDS011;64476;55.004;73.342;2023-04-15T01:24:14;10.55;;;3.25;;
69736;SDS011;64476;55.004;73.342;2023-04-15T01:27:23;11.85;;;3.03;;
69736;SDS011;64476;55.004;73.342;2023-04-15T01:30:25;3.75;;;3.05;;
69736;SDS011;64476;55.004;73.342;2023-04-15T01:33:28;3.95;;;2.92;;
69736;SDS011;64476;55.004;73.342;2023-04-15T01:36:48;6.78;;;2.92;;
69736;SDS011;64476;55.004;73.342;2023-04-15T01:39:50;5.95;;;2.85;;
69736;SDS011;64476;55.004;73.342;2023-04-15T01:42:52;7.53;;;3.25;;
69736;SDS011;64476;55.004;73.342;2023-04-15T01:46:26;6.00;;;4.38;;
69736;SDS011;64476;55.004;73.342;2023-04-15T01:49:34;20.63;;;4.07;;
69736;SDS011;64476;55.004;73.342;2023-04-15T01:52:37;16.40;;;3.80;;
69736;SDS011;64476;55.004;73.342;2023-04-15T01:55:40;4.15;;;2.92;;
69736;SDS011;64476;55.004;73.342;2023-04-15T01:58:43;18.02;;;4.63;;
69736;SDS011;64476;55.004;73.342;2023-04-15T02:01:46;14.77;;;4.53;;
69736;SDS011;64476;55.004;73.342;2023-04-15T02:04:49;14.52;;;4.28;;
69736;SDS011;64476;55.004;73.342;2023-04-15T02:07:56;11.40;;;4.47;;
69736;SDS011;64476;55.004;73.342;2023-04-15T02:11:02;21.73;;;5.07;;
69736;SDS011;64476;55.004;73.342;2023-04-15T02:14:07;20.92;;;4.95;;
69736;SDS011;64476;55.004;73.342;2023-04-15T02:17:10;33.15;;;4.65;;
69736;SDS011;64476;55.004;73.342;2023-04-15T02:20:13;41.85;;;5.15;;
69736;SDS011;64476;55.004;73.342;2023-04-15T02:23:16;24.75;;;4.32;;
69736;SDS011;64476;55.004;73.342;2023-04-15T02:29:58;30.40;;;5.25;;
69736;SDS011;64476;55.004;73.342;2023-04-15T02:33:39;26.30;;;4.80;;
69736;SDS011;64476;55.004;73.342;2023-04-15T02:37:13;9.65;;;4.20;;
69736;SDS011;64476;55.004;73.342;2023-04-15T02:40:16;8.30;;;3.17;;
69736;SDS011;64476;55.004;73.342;2023-04-15T02:43:21;6.93;;;3.33;;
69736;SDS011;64476;55.004;73.342;2023-04-15T02:49:29;35.97;;;5.88;;
69736;SDS011;64476;55.004;73.342;2023-04-15T02:52:32;26.23;;;6.88;;
69736;SDS011;64476;55.004;73.342;2023-04-15T02:55:35;26.65;;;6.88;;
69736;SDS011;64476;55.004;73.342;2023-04-15T03:02:23;8.37;;;3.77;;
69736;SDS011;64476;55.004;73.342;2023-04-15T03:05:31;11.27;;;4.10;;
69736;SDS011;64476;55.004;73.342;2023-04-15T03:08:35;15.45;;;4.28;;
69736;SDS011;64476;55.004;73.342;2023-04-15T03:11:38;12.88;;;4.20;;
69736;SDS011;64476;55.004;73.342;2023-04-15T03:14:46;16.70;;;3.80;;
69736;SDS011;64476;55.004;73.342;2023-04-15T03:17:50;22.10;;;4.70;;
69736;SDS011;64476;55.004;73.342;2023-04-15T03:20:53;8.35;;;3.72;;
69736;SDS011;64476;55.004;73.342;2023-04-15T03:23:57;9.13;;;3.95;;
69736;SDS011;64476;55.004;73.342;2023-04-15T03:27:00;22.05;;;3.92;;
69736;SDS011;64476;55.004;73.342;2023-04-15T03:30:05;30.38;;;5.07;;
69736;SDS011;64476;55.004;73.342;2023-04-15T03:33:12;26.00;;;3.08;;
69736;SDS011;64476;55.004;73.342;2023-04-15T03:36:24;18.21;;;3.01;;
69736;SDS011;64476;55.004;73.342;2023-04-15T03:39:27;29.73;;;3.65;;
69736;SDS011;64476;55.004;73.342;2023-04-15T03:42:30;49.08;;;22.40;;
69736;SDS011;64476;55.004;73.342;2023-04-15T03:45:33;17.00;;;6.03;;
69736;SDS011;64476;55.004;73.342;2023-04-15T03:49:08;12.13;;;3.38;;
69736;SDS011;64476;55.004;73.342;2023-04-15T03:52:12;10.83;;;3.33;;
69736;SDS011;64476;55.004;73.342;2023-04-15T03:55:15;72.88;;;7.03;;
69736;SDS011;64476;55.004;73.342;2023-04-15T03:58:18;10.68;;;4.40;;
69736;SDS011;64476;55.004;73.342;2023-04-15T04:01:24;19.45;;;4.25;;
69736;SDS011;64476;55.004;73.342;2023-04-15T04:08:13;12.60;;;3.45;;
69736;SDS011;64476;55.004;73.342;2023-04-15T04:11:24;12.80;;;4.30;;
69736;SDS011;64476;55.004;73.342;2023-04-15T04:14:27;16.30;;;2.97;;
69736;SDS011;64476;55.004;73.342;2023-04-15T04:17:31;13.63;;;3.17;;
69736;SDS011;64476;55.004;73.342;2023-04-15T04:20:34;15.82;;;3.97;;
69736;SDS011;64476;55.004;73.342;2023-04-15T04:23:37;9.85;;;4.75;;
69736;SDS011;64476;55.004;73.342;2023-04-15T04:30:46;29.08;;;4.03;;
69736;SDS011;64476;55.004;73.342;2023-04-15T04:33:59;8.73;;;3.10;;
69736;SDS011;64476;55.004;73.342;2023-04-15T04:37:02;25.45;;;8.48;;
69736;SDS011;64476;55.004;73.342;2023-04-15T04:40:05;15.68;;;4.63;;
69736;SDS011;64476;55.004;73.342;2023-04-15T04:43:14;21.83;;;2.80;;
69736;SDS011;64476;55.004;73.342;2023-04-15T04:46:24;22.77;;;3.50;;
69736;SDS011;64476;55.004;73.342;2023-04-15T04:49:27;15.20;;;3.25;;
69736;SDS011;64476;55.004;73.342;2023-04-15T04:52:30;18.83;;;4.72;;
69736;SDS011;64476;55.004;73.342;2023-04-15T04:56:04;4.03;;;2.25;;
69736;SDS011;64476;55.004;73.342;2023-04-15T04:59:11;24.05;;;3.70;;
69736;SDS011;64476;55.004;73.342;2023-04-15T05:02:24;21.10;;;3.25;;
69736;SDS011;64476;55.004;73.342;2023-04-15T05:05:28;2.40;;;2.20;;
69736;SDS011;64476;55.004;73.342;2023-04-15T05:08:31;10.98;;;2.80;;
69736;SDS011;64476;55.004;73.342;2023-04-15T05:11:44;8.95;;;3.17;;
69736;SDS011;64476;55.004;73.342;2023-04-15T05:14:57;38.20;;;4.05;;
69736;SDS011;64476;55.004;73.342;2023-04-15T05:18:07;16.35;;;3.42;;
69736;SDS011;64476;55.004;73.342;2023-04-15T05:21:10;17.13;;;2.78;;
69736;SDS011;64476;55.004;73.342;2023-04-15T05:24:13;14.13;;;3.40;;
69736;SDS011;64476;55.004;73.342;2023-04-15T05:27:16;10.95;;;2.78;;
69736;SDS011;64476;55.004;73.342;2023-04-15T05:30:20;14.63;;;2.85;;
69736;SDS011;64476;55.004;73.342;2023-04-15T05:33:23;18.92;;;8.48;;
69736;SDS011;64476;55.004;73.342;2023-04-15T05:36:26;10.78;;;3.94;;
69736;SDS011;64476;55.004;73.342;2023-04-15T05:39:31;9.80;;;3.28;;
69736;SDS011;64476;55.004;73.342;2023-04-15T05:42:35;13.13;;;3.30;;
69736;SDS011;64476;55.004;73.342;2023-04-15T05:45:38;36.83;;;6.50;;
69736;SDS011;64476;55.004;73.342;2023-04-15T05:48:41;7.18;;;2.50;;
69736;SDS011;64476;55.004;73.342;2023-04-15T05:51:44;5.50;;;3.00;;
69736;SDS011;64476;55.004;73.342;2023-04-15T05:54:49;31.98;;;5.25;;
69736;SDS011;64476;55.004;73.342;2023-04-15T05:57:52;16.40;;;3.65;;
69736;SDS011;64476;55.004;73.342;2023-04-15T06:00:58;15.77;;;4.05;;
69736;SDS011;64476;55.004;73.342;2023-04-15T06:04:01;16.50;;;2.90;;
69736;SDS011;64476;55.004;73.342;2023-04-15T06:07:04;59.50;;;6.50;;
69736;SDS011;64476;55.004;73.342;2023-04-15T06:10:07;11.68;;;2.28;;
69736;SDS011;64476;55.004;73.342;2023-04-15T06:13:10;33.50;;;4.22;;
69736;SDS011;64476;55.004;73.342;2023-04-15T06:16:14;15.95;;;4.18;;
69736;SDS011;64476;55.004;73.342;2023-04-15T06:19:17;64.45;;;4.95;;
69736;SDS011;64476;55.004;73.342;2023-04-15T06:22:24;13.57;;;2.63;;
69736;SDS011;64476;55.004;73.342;2023-04-15T06:26:08;12.32;;;3.75;;
69736;SDS011;64476;55.004;73.342;2023-04-15T06:29:52;49.28;;;4.40;;
69736;SDS011;64476;55.004;73.342;2023-04-15T06:32:57;33.45;;;3.50;;
69736;SDS011;64476;55.004;73.342;2023-04-15T06:36:06;6.63;;;3.55;;
69736;SDS011;64476;55.004;73.342;2023-04-15T06:39:09;48.03;;;6.70;;
69736;SDS011;64476;55.004;73.342;2023-04-15T06:42:12;24.90;;;4.73;;
69736;SDS011;64476;55.004;73.342;2023-04-15T06:45:15;17.42;;;4.00;;
69736;SDS011;64476;55.004;73.342;2023-04-15T06:48:23;11.60;;;2.53;;
69736;SDS011;64476;55.004;73.342;2023-04-15T06:51:26;2.54;;;2.34;;
69736;SDS011;64476;55.004;73.342;2023-04-15T06:54:29;5.28;;;2.05;;
69736;SDS011;64476;55.004;73.342;2023-04-15T06:57:42;22.27;;;3.30;;
69736;SDS011;64476;55.004;73.342;2023-04-15T07:00:45;38.42;;;3.50;;
69736;SDS011;64476;55.004;73.342;2023-04-15T07:03:49;9.80;;;2.83;;
69736;SDS011;64476;55.004;73.342;2023-04-15T07:06:52;7.28;;;2.00;;
69736;SDS011;64476;55.004;73.342;2023-04-15T07:10:08;20.25;;;7.05;;
69736;SDS011;64476;55.004;73.342;2023-04-15T07:13:13;33.13;;;4.60;;
69736;SDS011;64476;55.004;73.342;2023-04-15T07:16:24;6.70;;;3.24;;
69736;SDS011;64476;55.004;73.342;2023-04-15T07:19:27;8.93;;;3.92;;
69736;SDS011;64476;55.004;73.342;2023-04-15T07:22:30;15.00;;;2.78;;
69736;SDS011;64476;55.004;73.342;2023-04-15T07:25:32;16.13;;;3.08;;
69736;SDS011;64476;55.004;73.342;2023-04-15T07:29:08;15.23;;;3.20;;
69736;SDS011;64476;55.004;73.342;2023-04-15T07:32:11;6.60;;;2.40;;
69736;SDS011;64476;55.004;73.342;2023-04-15T07:35:13;7.72;;;2.50;;
69736;SDS011;64476;55.004;73.342;2023-04-15T07:38:16;9.70;;;2.43;;
69736;SDS011;64476;55.004;73.342;2023-04-15T07:41:25;13.85;;;2.83;;
69736;SDS011;64476;55.004;73.342;2023-04-15T07:44:28;17.58;;;3.33;;
69736;SDS011;64476;55.004;73.342;2023-04-15T07:47:32;8.80;;;2.60;;
69736;SDS011;64476;55.004;73.342;2023-04-15T07:50:34;11.40;;;3.60;;
69736;SDS011;64476;55.004;73.342;2023-04-15T07:53:37;10.38;;;2.63;;
69736;SDS011;64476;55.004;73.342;2023-04-15T07:56:40;69.35;;;4.25;;
69736;SDS011;64476;55.004;73.342;2023-04-15T07:59:43;25.42;;;4.65;;
69736;SDS011;64476;55.004;73.342;2023-04-15T08:02:52;51.85;;;3.78;;
69736;SDS011;64476;55.004;73.342;2023-04-15T08:05:58;19.95;;;3.55;;
69736;SDS011;64476;55.004;73.342;2023-04-15T08:09:01;19.57;;;2.87;;
69736;SDS011;64476;55.004;73.342;2023-04-15T08:12:04;8.18;;;2.67;;
69736;SDS011;64476;55.004;73.342;2023-04-15T08:15:09;13.20;;;3.63;;
69736;SDS011;64476;55.004;73.342;2023-04-15T08:18:12;13.45;;;3.47;;
69736;SDS011;64476;55.004;73.342;2023-04-15T08:21:24;25.03;;;4.02;;
69736;SDS011;64476;55.004;73.342;2023-04-15T08:24:27;15.45;;;3.30;;
69736;SDS011;64476;55.004;73.342;2023-04-15T08:27:30;6.95;;;2.80;;
69736;SDS011;64476;55.004;73.342;2023-04-15T08:30:33;4.50;;;2.30;;
69736;SDS011;64476;55.004;73.342;2023-04-15T08:34:08;16.77;;;3.40;;
69736;SDS011;64476;55.004;73.342;2023-04-15T08:37:19;14.52;;;2.88;;
69736;SDS011;64476;55.004;73.342;2023-04-15T08:40:22;11.13;;;2.47;;
69736;SDS011;64476;55.004;73.342;2023-04-15T08:43:36;16.33;;;3.65;;
69736;SDS011;64476;55.004;73.342;2023-04-15T08:47:29;8.30;;;2.58;;
69736;SDS011;64476;55.004;73.342;2023-04-15T08:50:33;33.70;;;11.73;;
69736;SDS011;64476;55.004;73.342;2023-04-15T08:54:08;34.55;;;12.57;;
69736;SDS011;64476;55.004;73.342;2023-04-15T08:57:12;7.25;;;2.50;;
69736;SDS011;64476;55.004;73.342;2023-04-15T09:00:26;3.78;;;2.65;;
69736;SDS011;64476;55.004;73.342;2023-04-15T09:03:30;11.55;;;3.15;;
69736;SDS011;64476;55.004;73.342;2023-04-15T09:06:33;16.80;;;3.77;;
69736;SDS011;64476;55.004;73.342;2023-04-15T09:09:36;10.85;;;2.85;;
69736;SDS011;64476;55.004;73.342;2023-04-15T09:12:42;19.63;;;2.72;;
69736;SDS011;64476;55.004;73.342;2023-04-15T09:15:49;7.78;;;3.65;;
69736;SDS011;64476;55.004;73.342;2023-04-15T09:18:52;11.25;;;3.40;;
69736;SDS011;64476;55.004;73.342;2023-04-15T09:21:56;16.90;;;3.40;;
69736;SDS011;64476;55.004;73.342;2023-04-15T09:25:00;148.90;;;7.38;;
69736;SDS011;64476;55.004;73.342;2023-04-15T09:28:03;18.95;;;3.70;;
69736;SDS011;64476;55.004;73.342;2023-04-15T09:31:06;3.70;;;2.83;;
69736;SDS011;64476;55.004;73.342;2023-04-15T09:34:09;5.35;;;2.38;;
69736;SDS011;64476;55.004;73.342;2023-04-15T09:37:12;17.27;;;2.75;;
69736;SDS011;64476;55.004;73.342;2023-04-15T09:43:54;18.00;;;3.22;;
69736;SDS011;64476;55.004;73.342;2023-04-15T09:47:34;10.30;;;2.78;;
69736;SDS011;64476;55.004;73.342;2023-04-15T09:50:37;6.18;;;2.55;;
69736;SDS011;64476;55.004;73.342;2023-04-15T09:53:42;14.68;;;2.83;;
69736;SDS011;64476;55.004;73.342;2023-04-15T10:00:21;4.50;;;2.35;;
69736;SDS011;64476;55.004;73.342;2023-04-15T10:03:25;19.65;;;4.00;;
69736;SDS011;64476;55.004;73.342;2023-04-15T10:06:33;41.73;;;4.57;;
69736;SDS011;64476;55.004;73.342;2023-04-15T10:09:40;21.97;;;3.63;;
69736;SDS011;64476;55.004;73.342;2023-04-15T10:13:18;29.50;;;4.20;;
69736;SDS011;64476;55.004;73.342;2023-04-15T10:16:58;27.83;;;3.58;;
69736;SDS011;64476;55.004;73.342;2023-04-15T10:20:03;9.30;;;3.65;;
69736;SDS011;64476;55.004;73.342;2023-04-15T10:23:37;38.40;;;14.97;;
69736;SDS011;64476;55.004;73.342;2023-04-15T10:26:41;18.20;;;2.92;;
69736;SDS011;64476;55.004;73.342;2023-04-15T10:30:20;12.98;;;3.00;;
69736;SDS011;64476;55.004;73.342;2023-04-15T10:33:24;15.07;;;3.80;;
69736;SDS011;64476;55.004;73.342;2023-04-15T10:36:37;3.97;;;3.28;;
69736;SDS011;64476;55.004;73.342;2023-04-15T10:39:40;15.73;;;3.97;;
69736;SDS011;64476;55.004;73.342;2023-04-15T10:42:53;15.32;;;4.05;;
69736;SDS011;64476;55.004;73.342;2023-04-15T10:46:40;7.65;;;3.40;;
69736;SDS011;64476;55.004;73.342;2023-04-15T10:49:49;5.57;;;2.15;;
69736;SDS011;64476;55.004;73.342;2023-04-15T10:53:10;21.23;;;3.60;;
69736;SDS011;64476;55.004;73.342;2023-04-15T10:56:13;12.05;;;4.00;;
69736;SDS011;64476;55.004;73.342;2023-04-15T10:59:18;9.90;;;2.58;;
69736;SDS011;64476;55.004;73.342;2023-04-15T11:06:44;33.58;;;3.33;;
69736;SDS011;64476;55.004;73.342;2023-04-15T11:09:54;22.23;;;2.70;;
69736;SDS011;64476;55.004;73.342;2023-04-15T11:16:24;7.88;;;2.53;;
69736;SDS011;64476;55.004;73.342;2023-04-15T11:19:37;18.40;;;3.75;;
69736;SDS011;64476;55.004;73.342;2023-04-15T11:22:46;12.65;;;2.85;;
69736;SDS011;64476;55.004;73.342;2023-04-15T11:25:50;2.88;;;2.38;;
69736;SDS011;64476;55.004;73.342;2023-04-15T11:28:53;9.13;;;3.10;;
69736;SDS011;64476;55.004;73.342;2023-04-15T11:35:05;7.67;;;3.30;;
69736;SDS011;64476;55.004;73.342;2023-04-15T11:38:09;17.20;;;3.53;;
69736;SDS011;64476;55.004;73.342;2023-04-15T11:41:24;11.13;;;3.41;;
69736;SDS011;64476;55.004;73.342;2023-04-15T11:44:28;22.95;;;3.30;;
69736;SDS011;64476;55.004;73.342;2023-04-15T11:47:31;15.90;;;9.03;;
69736;SDS011;64476;55.004;73.342;2023-04-15T11:50:39;8.57;;;3.25;;
69736;SDS011;64476;55.004;73.342;2023-04-15T11:56:52;8.68;;;4.38;;
69736;SDS011;64476;55.004;73.342;2023-04-15T11:59:55;10.52;;;5.60;;
69736;SDS011;64476;55.004;73.342;2023-04-15T12:03:35;8.27;;;6.47;;
69736;SDS011;64476;55.004;73.342;2023-04-15T12:06:47;18.10;;;8.50;;
69736;SDS011;64476;55.004;73.342;2023-04-15T12:09:54;22.55;;;9.30;;
69736;SDS011;64476;55.004;73.342;2023-04-15T12:12:57;20.50;;;9.57;;
69736;SDS011;64476;55.004;73.342;2023-04-15T12:15:58;23.95;;;10.55;;
69736;SDS011;64476;55.004;73.342;2023-04-15T12:19:03;18.98;;;12.00;;
69736;SDS011;64476;55.004;73.342;2023-04-15T12:22:12;14.90;;;9.25;;
69736;SDS011;64476;55.004;73.342;2023-04-15T12:25:52;18.08;;;7.90;;
69736;SDS011;64476;55.004;73.342;2023-04-15T12:29:00;23.13;;;8.80;;
69736;SDS011;64476;55.004;73.342;2023-04-15T12:32:40;34.60;;;10.23;;
69736;SDS011;64476;55.004;73.342;2023-04-15T12:35:42;20.88;;;7.60;;
69736;SDS011;64476;55.004;73.342;2023-04-15T12:38:51;20.48;;;8.15;;
69736;SDS011;64476;55.004;73.342;2023-04-15T12:42:04;46.15;;;9.43;;
69736;SDS011;64476;55.004;73.342;2023-04-15T12:45:06;29.05;;;8.13;;
69736;SDS011;64476;55.004;73.342;2023-04-15T12:48:18;20.63;;;9.43;;
69736;SDS011;64476;55.004;73.342;2023-04-15T12:51:55;30.55;;;10.23;;
69736;SDS011;64476;55.004;73.342;2023-04-15T12:54:59;10.60;;;5.60;;
69736;SDS011;64476;55.004;73.342;2023-04-15T12:58:05;12.15;;;5.85;;
69736;SDS011;64476;55.004;73.342;2023-04-15T13:01:24;8.67;;;4.92;;
69736;SDS011;64476;55.004;73.342;2023-04-15T13:04:26;13.20;;;5.05;;
69736;SDS011;64476;55.004;73.342;2023-04-15T13:07:34;23.52;;;6.22;;
69736;SDS011;64476;55.004;73.342;2023-04-15T13:10:35;10.60;;;6.47;;
69736;SDS011;64476;55.004;73.342;2023-04-15T13:13:38;11.68;;;5.90;;
69736;SDS011;64476;55.004;73.342;2023-04-15T13:16:43;23.70;;;6.50;;
69736;SDS011;64476;55.004;73.342;2023-04-15T13:19:45;15.80;;;6.38;;
69736;SDS011;64476;55.004;73.342;2023-04-15T13:22:47;12.68;;;5.35;;
69736;SDS011;64476;55.004;73.342;2023-04-15T13:25:49;16.05;;;4.40;;
69736;SDS011;64476;55.004;73.342;2023-04-15T13:29:00;9.00;;;3.70;;
69736;SDS011;64476;55.004;73.342;2023-04-15T13:32:53;9.80;;;3.38;;
69736;SDS011;64476;55.004;73.342;2023-04-15T13:35:59;17.65;;;4.18;;
69736;SDS011;64476;55.004;73.342;2023-04-15T13:39:01;8.75;;;2.83;;
69736;SDS011;64476;55.004;73.342;2023-04-15T13:42:03;7.20;;;3.00;;
69736;SDS011;64476;55.004;73.342;2023-04-15T13:45:05;12.05;;;3.00;;
69736;SDS011;64476;55.004;73.342;2023-04-15T13:48:07;14.73;;;3.13;;
69736;SDS011;64476;55.004;73.342;2023-04-15T13:51:09;18.38;;;2.78;;
69736;SDS011;64476;55.004;73.342;2023-04-15T13:54:11;3.10;;;2.58;;
69736;SDS011;64476;55.004;73.342;2023-04-15T13:57:12;5.32;;;3.15;;
69736;SDS011;64476;55.004;73.342;2023-04-15T14:00:14;25.60;;;3.60;;
69736;SDS011;64476;55.004;73.342;2023-04-15T14:03:16;13.30;;;3.03;;
69736;SDS011;64476;55.004;73.342;2023-04-15T14:06:24;8.54;;;4.04;;
69736;SDS011;64476;55.004;73.342;2023-04-15T14:09:27;14.73;;;3.78;;
69736;SDS011;64476;55.004;73.342;2023-04-15T14:12:28;22.58;;;4.32;;
69736;SDS011;64476;55.004;73.342;2023-04-15T14:15:30;10.75;;;3.33;;
69736;SDS011;64476;55.004;73.342;2023-04-15T14:18:33;12.77;;;3.15;;
69736;SDS011;64476;55.004;73.342;2023-04-15T14:22:06;14.07;;;3.38;;
69736;SDS011;64476;55.004;73.342;2023-04-15T14:25:10;14.95;;;3.03;;
69736;SDS011;64476;55.004;73.342;2023-04-15T14:28:47;10.10;;;2.70;;
69736;SDS011;64476;55.004;73.342;2023-04-15T14:31:57;18.20;;;3.83;;
69736;SDS011;64476;55.004;73.342;2023-04-15T14:34:59;11.57;;;3.03;;
69736;SDS011;64476;55.004;73.342;2023-04-15T14:38:01;7.78;;;2.58;;
69736;SDS011;64476;55.004;73.342;2023-04-15T14:41:03;13.00;;;3.13;;
69736;SDS011;64476;55.004;73.342;2023-04-15T14:44:05;13.13;;;5.05;;
69736;SDS011;64476;55.004;73.342;2023-04-15T14:47:09;15.83;;;3.57;;
69736;SDS011;64476;55.004;73.342;2023-04-15T14:50:10;18.25;;;4.18;;
69736;SDS011;64476;55.004;73.342;2023-04-15T14:53:12;14.30;;;3.83;;
69736;SDS011;64476;55.004;73.342;2023-04-15T14:56:24;13.49;;;2.83;;
69736;SDS011;64476;55.004;73.342;2023-04-15T14:59:27;33.70;;;4.30;;
69736;SDS011;64476;55.004;73.342;2023-04-15T15:02:33;21.13;;;3.92;;
69736;SDS011;64476;55.004;73.342;2023-04-15T15:05:36;32.67;;;4.55;;
69736;SDS011;64476;55.004;73.342;2023-04-15T15:08:39;10.50;;;3.75;;
69736;SDS011;64476;55.004;73.342;2023-04-15T15:11:41;17.87;;;4.00;;
69736;SDS011;64476;55.004;73.342;2023-04-15T15:14:44;11.60;;;3.38;;
69736;SDS011;64476;55.004;73.342;2023-04-15T15:17:50;16.58;;;4.43;;
69736;SDS011;64476;55.004;73.342;2023-04-15T15:20:52;18.42;;;3.83;;
69736;SDS011;64476;55.004;73.342;2023-04-15T15:27:46;14.85;;;3.90;;
69736;SDS011;64476;55.004;73.342;2023-04-15T15:30:56;27.02;;;3.75;;
69736;SDS011;64476;55.004;73.342;2023-04-15T15:34:04;16.52;;;3.85;;
69736;SDS011;64476;55.004;73.342;2023-04-15T15:37:05;24.88;;;6.10;;
69736;SDS011;64476;55.004;73.342;2023-04-15T15:40:07;13.77;;;3.28;;
69736;SDS011;64476;55.004;73.342;2023-04-15T15:43:19;14.30;;;4.25;;
69736;SDS011;64476;55.004;73.342;2023-04-15T15:46:29;28.00;;;4.35;;
69736;SDS011;64476;55.004;73.342;2023-04-15T15:50:04;30.90;;;4.50;;
69736;SDS011;64476;55.004;73.342;2023-04-15T15:53:10;26.67;;;4.28;;
69736;SDS011;64476;55.004;73.342;2023-04-15T15:56:44;15.80;;;3.92;;
69736;SDS011;64476;55.004;73.342;2023-04-15T15:59:46;32.65;;;4.47;;
69736;SDS011;64476;55.004;73.342;2023-04-15T16:02:47;38.33;;;4.78;;
69736;SDS011;64476;55.004;73.342;2023-04-15T16:05:49;25.08;;;4.90;;
69736;SDS011;64476;55.004;73.342;2023-04-15T16:08:51;17.90;;;4.68;;
69736;SDS011;64476;55.004;73.342;2023-04-15T16:12:00;21.67;;;5.00;;
69736;SDS011;64476;55.004;73.342;2023-04-15T16:15:04;26.80;;;5.20;;
69736;SDS011;64476;55.004;73.342;2023-04-15T16:18:06;26.48;;;4.63;;
69736;SDS011;64476;55.004;73.342;2023-04-15T16:21:08;99.13;;;8.27;;
69736;SDS011;64476;55.004;73.342;2023-04-15T16:24:09;66.13;;;5.35;;
69736;SDS011;64476;55.004;73.342;2023-04-15T16:27:14;38.03;;;5.65;;
69736;SDS011;64476;55.004;73.342;2023-04-15T16:30:31;19.25;;;5.65;;
69736;SDS011;64476;55.004;73.342;2023-04-15T16:33:39;27.15;;;5.72;;
69736;SDS011;64476;55.004;73.342;2023-04-15T16:36:41;34.38;;;6.38;;
69736;SDS011;64476;55.004;73.342;2023-04-15T16:39:43;23.20;;;5.47;;
69736;SDS011;64476;55.004;73.342;2023-04-15T16:42:44;21.10;;;5.32;;
69736;SDS011;64476;55.004;73.342;2023-04-15T16:45:46;26.08;;;6.85;;
69736;SDS011;64476;55.004;73.342;2023-04-15T16:48:50;16.23;;;6.00;;
69736;SDS011;64476;55.004;73.342;2023-04-15T16:51:57;33.30;;;6.75;;
69736;SDS011;64476;55.004;73.342;2023-04-15T16:54:59;27.95;;;5.47;;
69736;SDS011;64476;55.004;73.342;2023-04-15T16:58:01;23.92;;;7.10;;
69736;SDS011;64476;55.004;73.342;2023-04-15T17:01:02;18.90;;;6.85;;
69736;SDS011;64476;55.004;73.342;2023-04-15T17:04:04;26.13;;;8.10;;
69736;SDS011;64476;55.004;73.342;2023-04-15T17:07:20;34.00;;;8.10;;
69736;SDS011;64476;55.004;73.342;2023-04-15T17:10:22;25.15;;;9.20;;
69736;SDS011;64476;55.004;73.342;2023-04-15T17:13:24;29.38;;;11.75;;
69736;SDS011;64476;55.004;73.342;2023-04-15T17:16:27;41.25;;;13.88;;
69736;SDS011;64476;55.004;73.342;2023-04-15T17:20:04;49.83;;;16.88;;
69736;SDS011;64476;55.004;73.342;2023-04-15T17:23:38;48.83;;;16.43;;
69736;SDS011;64476;55.004;73.342;2023-04-15T17:26:41;47.60;;;16.38;;
69736;SDS011;64476;55.004;73.342;2023-04-15T17:29:48;59.72;;;20.13;;
69736;SDS011;64476;55.004;73.342;2023-04-15T17:33:10;66.88;;;19.48;;
69736;SDS011;64476;55.004;73.342;2023-04-15T17:37:10;40.78;;;20.45;;
69736;SDS011;64476;55.004;73.342;2023-04-15T17:40:32;42.40;;;20.08;;
69736;SDS011;64476;55.004;73.342;2023-04-15T17:44:18;52.92;;;21.30;;
69736;SDS011;64476;55.004;73.342;2023-04-15T17:47:59;51.22;;;21.25;;
69736;SDS011;64476;55.004;73.342;2023-04-15T17:51:26;40.48;;;21.92;;
69736;SDS011;64476;55.004;73.342;2023-04-15T17:54:47;36.15;;;19.10;;
69736;SDS011;64476;55.004;73.342;2023-04-15T17:58:11;59.00;;;19.60;;
69736;SDS011;64476;55.004;73.342;2023-04-15T18:01:56;33.93;;;13.23;;
69736;SDS011;64476;55.004;73.342;2023-04-15T18:05:49;23.35;;;11.00;;
69736;SDS011;64476;55.004;73.342;2023-04-15T18:09:51;17.42;;;9.30;;
69736;SDS011;64476;55.004;73.342;2023-04-15T18:13:14;21.83;;;9.57;;
69736;SDS011;64476;55.004;73.342;2023-04-15T18:16:59;25.75;;;9.85;;
69736;SDS011;64476;55.004;73.342;2023-04-15T18:20:40;16.85;;;9.10;;
69736;SDS011;64476;55.004;73.342;2023-04-15T18:23:49;20.25;;;9.20;;
69736;SDS011;64476;55.004;73.342;2023-04-15T18:26:51;14.40;;;7.80;;
69736;SDS011;64476;55.004;73.342;2023-04-15T18:29:58;14.48;;;8.05;;
69736;SDS011;64476;55.004;73.342;2023-04-15T18:33:11;10.20;;;6.25;;
69736;SDS011;64476;55.004;73.342;2023-04-15T18:36:12;12.65;;;7.15;;
69736;SDS011;64476;55.004;73.342;2023-04-15T18:39:24;11.88;;;6.97;;
69736;SDS011;64476;55.004;73.342;2023-04-15T18:42:26;15.18;;;6.25;;
69736;SDS011;64476;55.004;73.342;2023-04-15T18:45:28;14.77;;;6.13;;
69736;SDS011;64476;55.004;73.342;2023-04-15T18:48:36;16.30;;;7.03;;
69736;SDS011;64476;55.004;73.342;2023-04-15T18:51:37;9.35;;;6.75;;
69736;SDS011;64476;55.004;73.342;2023-04-15T18:58:18;12.50;;;7.13;;
69736;SDS011;64476;55.004;73.342;2023-04-15T19:01:23;11.15;;;6.00;;
69736;SDS011;64476;55.004;73.342;2023-04-15T19:04:27;16.13;;;6.38;;
69736;SDS011;64476;55.004;73.342;2023-04-15T19:07:29;11.52;;;6.63;;
69736;SDS011;64476;55.004;73.342;2023-04-15T19:10:37;18.90;;;6.22;;
69736;SDS011;64476;55.004;73.342;2023-04-15T19:13:39;14.17;;;6.10;;